This is the latest recevied weather packets stored in our database for station/object VE2XOX. If no packets are shown the sender has not sent any weather packets the latest 1 day(s).
| Time | Temp. | Humidity | Pressure | Rain* | Wind** | Luminosity | Snow |
|---|---|---|---|---|---|---|---|
| 1778097628 | 7.22° C | 87% | 1006.7 hPa | 1.02 mm | - | - | - |
| 1778096731 | 7.78° C | 88% | 1006.7 hPa | 1.02 mm | - | - | - |
| 1778095518 | 7.22° C | 87% | 1007.1 hPa | 1.02 mm | - | - | - |
| 1778092536 | 6.67° C | 87% | 1007.2 hPa | 5.08 mm | - | - | - |
| 1778091929 | 6.67° C | 88% | 1007.4 hPa | 6.1 mm | - | - | - |
| 1778090721 | 6.67° C | 88% | 1007.4 hPa | 6.1 mm | - | - | - |
| 1778089822 | 6.67° C | 88% | 1007.8 hPa | 7.11 mm | - | - | - |
| 1778089532 | 6.67° C | 88% | 1007.8 hPa | 6.1 mm | - | - | - |
| 1778088326 | 6.67° C | 89% | 1007.9 hPa | 7.11 mm | - | - | - |
| 1778087715 | 6.67° C | 88% | 1008 hPa | 7.11 mm | - | - | - |
| 1778087427 | 6.67° C | 88% | 1008 hPa | 7.11 mm | - | - | - |
| 1778086817 | 6.67° C | 89% | 1008 hPa | 7.11 mm | - | - | - |
| 1778086529 | 6.67° C | 88% | 1008.1 hPa | 7.87 mm | - | - | - |
| 1778085628 | 6.67° C | 88% | 1008.3 hPa | 8.89 mm | - | - | - |
| 1778081724 | 6.67° C | 89% | 1008.8 hPa | 14.99 mm | - | - | - |
| 1778080825 | 6.67° C | 90% | 1009 hPa | 12.95 mm | - | - | - |
| 1778079927 | 7.22° C | 90% | 1009 hPa | 10.92 mm | - | - | - |
| 1778079315 | 7.22° C | 90% | 1008.8 hPa | 8.89 mm | - | - | - |
| 1778079020 | 7.22° C | 90% | 1008.7 hPa | 8.89 mm | - | - | - |
| 1778078421 | 7.22° C | 89% | 1008.7 hPa | 7.11 mm | - | - | - |
| 1778078124 | 7.22° C | 89% | 1008.7 hPa | 7.11 mm | - | - | - |
| 1778077829 | 7.22° C | 90% | 1008.7 hPa | 7.11 mm | - | - | - |
| 1778077227 | 7.22° C | 89% | 1008.7 hPa | 7.11 mm | - | - | - |
| 1778076912 | 7.22° C | 89% | 1008.7 hPa | 6.1 mm | - | - | - |
| 1778076613 | 7.22° C | 89% | 1008.7 hPa | 7.11 mm | - | - | - |
* Rain latest hour (hover to see other rain measurements)
** Current wind speed in m/s (hover to see current wind gust speed)